Time;durP1;ratioP1;P1;durP2;ratioP2;P2;SDS_P1;SDS_P2;PMS_P1;PMS_P2;Temp;Humidity;BMP_temperature;BMP_pressure;BME280_temperature;BME280_humidity;BME280_pressure;Samples;Min_cycle;Max_cycle;Signal;HPM_P1;HPM_P2
2023/05/27 00:01:42;;;;;;;7.90;3.10;;;11.40;68.70;;;;;;5074135;28;20029;-67
2023/05/27 00:04:08;;;;;;;7.30;2.60;;;11.40;68.90;;;;;;5086372;28;20063;-68
2023/05/27 00:06:35;;;;;;;9.50;3.30;;;11.40;69.10;;;;;;5076931;28;20074;-68
2023/05/27 00:09:00;;;;;;;9.82;3.10;;;11.40;69.10;;;;;;5075407;28;20387;-69
2023/05/27 00:11:26;;;;;;;7.32;2.88;;;11.40;69.20;;;;;;5075880;28;20017;-70
2023/05/27 00:13:52;;;;;;;8.88;3.60;;;11.40;69.20;;;;;;5076276;28;20036;-70
2023/05/27 00:16:17;;;;;;;11.98;3.22;;;11.40;69.60;;;;;;5084144;28;20419;-70
2023/05/27 00:18:43;;;;;;;6.68;2.78;;;11.30;70.10;;;;;;5071394;28;20031;-69
2023/05/27 00:21:08;;;;;;;7.25;3.03;;;11.30;70.10;;;;;;5082292;28;20089;-70
2023/05/27 00:23:34;;;;;;;10.38;3.42;;;11.30;70.30;;;;;;5071892;28;20024;-70
2023/05/27 00:25:59;;;;;;;7.43;2.92;;;11.20;70.30;;;;;;5082397;28;20486;-69
2023/05/27 00:28:28;;;;;;;8.05;2.78;;;11.20;70.90;;;;;;5076251;28;20732;-70
2023/05/27 00:30:54;;;;;;;7.40;2.90;;;11.20;70.30;;;;;;5082383;28;20016;-71
2023/05/27 00:33:21;;;;;;;10.43;3.47;;;11.20;70.50;;;;;;5068465;28;20035;-70
2023/05/27 00:35:46;;;;;;;6.43;2.90;;;11.10;70.60;;;;;;5078954;28;20089;-70
2023/05/27 00:38:12;;;;;;;7.72;2.90;;;11.10;70.50;;;;;;5080297;28;20059;-69
2023/05/27 00:40:40;;;;;;;8.98;3.25;;;11.10;70.60;;;;;;5074929;28;20024;-70
2023/05/27 00:43:06;;;;;;;8.48;3.33;;;11.10;70.70;;;;;;5072910;28;20025;-69
2023/05/27 00:45:31;;;;;;;7.35;2.80;;;11.00;71.10;;;;;;5070244;28;20025;-69
2023/05/27 00:47:58;;;;;;;7.35;2.83;;;11.00;71.30;;;;;;5085474;28;20085;-69
2023/05/27 00:50:26;;;;;;;7.20;3.15;;;11.00;71.20;;;;;;5070785;28;20058;-68
2023/05/27 00:52:55;;;;;;;8.15;3.03;;;11.00;71.30;;;;;;5082095;28;20024;-68
2023/05/27 00:55:21;;;;;;;8.00;2.88;;;11.00;71.20;;;;;;5079537;28;20082;-68
2023/05/27 00:57:47;;;;;;;8.38;2.85;;;11.00;71.30;;;;;;5084332;28;20587;-68
2023/05/27 01:00:13;;;;;;;8.45;2.83;;;11.00;71.30;;;;;;5076010;28;20024;-68
2023/05/27 01:02:42;;;;;;;7.47;3.22;;;10.90;71.30;;;;;;5073706;28;20032;-68
2023/05/27 01:05:14;;;;;;;9.82;3.10;;;10.90;71.40;;;;;;5079703;28;20499;-68
2023/05/27 01:08:07;;;;;;;8.13;3.10;;;10.90;71.60;;;;;;5075349;28;20016;-68
2023/05/27 01:10:42;;;;;;;8.73;3.45;;;10.80;71.60;;;;;;5066082;28;20067;-68
2023/05/27 01:13:17;;;;;;;8.70;3.65;;;10.80;71.80;;;;;;5078035;28;20347;-69
2023/05/27 01:15:43;;;;;;;9.48;3.40;;;10.80;72.20;;;;;;5071386;28;20567;-69
2023/05/27 01:18:12;;;;;;;6.75;2.80;;;10.70;72.10;;;;;;5072936;28;20017;-68
2023/05/27 01:20:43;;;;;;;8.20;3.13;;;10.70;72.30;;;;;;5069188;28;20020;-69
2023/05/27 01:23:12;;;;;;;9.27;3.08;;;10.70;72.60;;;;;;5069259;28;20692;-69
2023/05/27 01:25:38;;;;;;;9.85;3.17;;;10.60;72.60;;;;;;5067663;28;20115;-69
2023/05/27 01:28:03;;;;;;;8.07;3.10;;;10.60;72.90;;;;;;5069700;28;20085;-68
2023/05/27 01:30:30;;;;;;;9.70;3.28;;;10.60;72.90;;;;;;5069091;28;20021;-68
2023/05/27 01:33:08;;;;;;;8.35;3.15;;;10.60;72.90;;;;;;5072828;28;20051;-69
2023/05/27 01:35:46;;;;;;;10.60;3.40;;;10.60;73.00;;;;;;5065609;28;20547;-69
2023/05/27 01:38:19;;;;;;;11.02;3.80;;;10.60;73.70;;;;;;5063914;28;20051;-69
2023/05/27 01:40:46;;;;;;;6.57;3.15;;;10.50;74.10;;;;;;5064778;28;20016;-69
2023/05/27 01:43:12;;;;;;;6.82;2.80;;;10.60;74.00;;;;;;5067452;28;20020;-67
2023/05/27 01:45:38;;;;;;;9.50;3.08;;;10.50;73.70;;;;;;5067286;28;20178;-68
2023/05/27 01:48:04;;;;;;;8.57;2.83;;;10.50;73.70;;;;;;5069915;28;20108;-68
2023/05/27 01:50:33;;;;;;;9.32;3.20;;;10.50;73.60;;;;;;5073330;28;20017;-69
2023/05/27 01:53:00;;;;;;;10.55;3.00;;;10.50;73.60;;;;;;5078058;28;20670;-69
2023/05/27 01:55:25;;;;;;;10.85;3.00;;;10.40;73.80;;;;;;5072327;28;20055;-70
2023/05/27 01:57:51;;;;;;;11.82;3.50;;;10.40;73.80;;;;;;5070522;28;20071;-70
2023/05/27 02:00:17;;;;;;;9.35;3.17;;;10.40;73.80;;;;;;5068003;28;20028;-70
2023/05/27 02:02:42;;;;;;;9.90;3.10;;;10.40;73.80;;;;;;5077789;28;20024;-70
2023/05/27 02:05:08;;;;;;;7.00;2.63;;;10.40;73.70;;;;;;5069831;28;20081;-69
2023/05/27 02:07:34;;;;;;;9.52;3.38;;;10.40;73.80;;;;;;5083051;28;20020;-70
2023/05/27 02:10:00;;;;;;;10.18;3.22;;;10.30;73.90;;;;;;5076120;28;20491;-70
2023/05/27 02:12:25;;;;;;;7.15;2.90;;;10.30;74.10;;;;;;5071705;28;20024;-70
2023/05/27 02:14:51;;;;;;;8.63;2.95;;;10.30;74.00;;;;;;5069402;28;20064;-71
2023/05/27 02:17:17;;;;;;;9.77;3.08;;;10.30;74.00;;;;;;5075712;28;20028;-70
2023/05/27 02:19:42;;;;;;;8.73;2.90;;;10.40;74.00;;;;;;5068407;28;20028;-69
2023/05/27 02:22:08;;;;;;;10.02;3.13;;;10.30;73.90;;;;;;5079228;28;20047;-70
2023/05/27 02:24:34;;;;;;;8.60;3.08;;;10.30;74.00;;;;;;5068816;28;20025;-69
2023/05/27 02:27:01;;;;;;;6.28;2.70;;;10.20;74.10;;;;;;5071402;28;20032;-69
2023/05/27 02:29:26;;;;;;;8.15;3.13;;;10.20;74.30;;;;;;5067891;28;20394;-69
2023/05/27 02:31:52;;;;;;;9.98;3.00;;;10.10;75.00;;;;;;5072401;28;20107;-70
2023/05/27 02:34:17;;;;;;;10.40;3.83;;;10.10;74.40;;;;;;5070937;28;20055;-69
2023/05/27 02:36:43;;;;;;;10.15;3.13;;;10.10;74.40;;;;;;5071885;28;20028;-69
2023/05/27 02:39:10;;;;;;;8.15;3.13;;;10.10;74.60;;;;;;5068503;28;20494;-70
2023/05/27 02:41:35;;;;;;;10.32;3.30;;;10.00;74.60;;;;;;5069685;28;20031;-70
2023/05/27 02:44:02;;;;;;;8.88;2.95;;;10.00;74.80;;;;;;5071162;28;20024;-70
2023/05/27 02:46:34;;;;;;;8.98;3.25;;;9.90;75.00;;;;;;5069920;28;20540;-70
2023/05/27 02:48:59;;;;;;;8.32;3.40;;;9.80;75.30;;;;;;5071286;28;20033;-70
2023/05/27 02:51:25;;;;;;;8.48;3.35;;;9.80;75.40;;;;;;5072272;28;20021;-69
2023/05/27 02:53:51;;;;;;;8.10;3.05;;;9.80;75.50;;;;;;5072915;28;20032;-70
2023/05/27 02:56:17;;;;;;;9.82;3.20;;;9.80;75.50;;;;;;5078812;28;20024;-70
2023/05/27 02:58:43;;;;;;;7.32;3.10;;;9.80;75.50;;;;;;5075445;28;20020;-70
2023/05/27 03:01:08;;;;;;;10.48;3.15;;;9.80;75.60;;;;;;5072172;28;20041;-70
2023/05/27 03:03:34;;;;;;;9.18;3.60;;;9.80;75.80;;;;;;5076963;28;20029;-70
2023/05/27 03:06:00;;;;;;;7.57;3.17;;;9.80;75.90;;;;;;5072101;28;20467;-70
2023/05/27 03:08:26;;;;;;;8.05;3.00;;;9.80;76.00;;;;;;5067390;28;20028;-70
2023/05/27 03:10:51;;;;;;;10.57;3.55;;;9.70;75.90;;;;;;5076902;28;20095;-70
2023/05/27 03:13:17;;;;;;;6.75;3.13;;;9.70;75.90;;;;;;5088195;28;20032;-70
2023/05/27 03:15:42;;;;;;;9.73;3.40;;;9.70;76.30;;;;;;5076055;28;20050;-71
2023/05/27 03:18:08;;;;;;;8.98;3.42;;;9.60;76.50;;;;;;5081166;28;20016;-71
2023/05/27 03:20:33;;;;;;;10.10;3.63;;;9.60;76.70;;;;;;5075904;28;20020;-71
2023/05/27 03:22:59;;;;;;;8.98;3.70;;;9.60;77.10;;;;;;5086387;28;20024;-71
2023/05/27 03:25:25;;;;;;;10.20;3.42;;;9.60;77.50;;;;;;5070411;28;20475;-71
2023/05/27 03:27:51;;;;;;;8.48;2.80;;;9.60;77.40;;;;;;5077160;28;20024;-71
2023/05/27 03:30:16;;;;;;;7.47;2.92;;;9.60;77.30;;;;;;5078475;28;20447;-72
2023/05/27 03:32:42;;;;;;;7.78;3.30;;;9.60;77.20;;;;;;5074035;28;20024;-69
2023/05/27 03:35:08;;;;;;;8.10;3.50;;;9.70;77.00;;;;;;5071798;28;20039;-69
2023/05/27 03:37:33;;;;;;;9.75;3.45;;;9.70;77.10;;;;;;5075350;28;20029;-68
2023/05/27 03:39:59;;;;;;;9.15;3.50;;;9.70;77.20;;;;;;5082438;28;20028;-70
2023/05/27 03:42:24;;;;;;;9.65;3.50;;;9.70;77.40;;;;;;5070334;28;20082;-70
2023/05/27 03:44:50;;;;;;;10.63;3.40;;;9.70;77.40;;;;;;5071943;28;20028;-70
2023/05/27 03:47:20;;;;;;;9.60;3.17;;;9.70;77.40;;;;;;5073221;28;20031;-69
2023/05/27 03:49:46;;;;;;;8.93;2.92;;;9.70;77.30;;;;;;5080337;28;20048;-69
2023/05/27 03:52:11;;;;;;;9.32;3.58;;;9.70;77.40;;;;;;5069735;28;20052;-69
2023/05/27 03:54:37;;;;;;;14.55;4.00;;;9.70;77.60;;;;;;5070432;28;20509;-69
2023/05/27 03:57:02;;;;;;;10.35;3.72;;;9.70;77.90;;;;;;5070236;28;20528;-69
2023/05/27 03:59:28;;;;;;;12.65;4.22;;;9.70;77.90;;;;;;5076011;28;20041;-72
2023/05/27 04:01:53;;;;;;;10.18;4.05;;;9.80;78.10;;;;;;5071269;28;20034;-71
2023/05/27 04:04:19;;;;;;;9.02;3.67;;;9.80;78.60;;;;;;5073288;28;20128;-71
2023/05/27 04:06:44;;;;;;;10.43;3.95;;;9.80;78.70;;;;;;5076588;28;20029;-71
2023/05/27 04:09:10;;;;;;;8.35;3.33;;;9.80;78.40;;;;;;5073395;28;20021;-71
2023/05/27 04:11:36;;;;;;;8.80;3.83;;;9.80;78.20;;;;;;5070780;28;20028;-71
2023/05/27 04:14:01;;;;;;;8.00;3.47;;;9.80;78.10;;;;;;5071515;28;20112;-71
2023/05/27 04:16:30;;;;;;;10.00;3.90;;;9.90;78.00;;;;;;5080969;28;20390;-71
2023/05/27 04:18:56;;;;;;;8.90;3.38;;;9.90;78.30;;;;;;5070976;28;20024;-71
2023/05/27 04:21:22;;;;;;;11.32;3.50;;;9.90;78.30;;;;;;5069872;28;20534;-71
2023/05/27 04:23:48;;;;;;;10.90;3.70;;;9.90;78.10;;;;;;5076856;28;20036;-70
2023/05/27 04:26:14;;;;;;;7.65;3.13;;;10.00;78.40;;;;;;5082776;28;20021;-70
2023/05/27 04:28:40;;;;;;;11.52;4.00;;;10.00;78.20;;;;;;5071375;28;20097;-71
2023/05/27 04:31:12;;;;;;;11.63;4.03;;;10.00;78.60;;;;;;5070473;28;20020;-70
2023/05/27 04:33:40;;;;;;;8.90;3.97;;;10.00;78.70;;;;;;5070871;28;20086;-70
2023/05/27 04:36:09;;;;;;;9.68;4.10;;;10.00;78.90;;;;;;5071958;28;20502;-69
2023/05/27 04:38:34;;;;;;;11.85;3.80;;;10.10;79.20;;;;;;5073478;28;20674;-70
2023/05/27 04:41:01;;;;;;;9.82;3.83;;;10.00;79.20;;;;;;5070458;28;20048;-70
2023/05/27 04:43:27;;;;;;;8.27;3.70;;;10.10;79.10;;;;;;5072509;28;20464;-70
2023/05/27 04:45:53;;;;;;;8.73;3.63;;;10.10;78.70;;;;;;5070051;28;20390;-70
2023/05/27 04:48:19;;;;;;;9.15;3.45;;;10.10;78.90;;;;;;5070124;28;20107;-70
2023/05/27 04:50:45;;;;;;;10.13;3.60;;;10.20;78.60;;;;;;5065737;28;20097;-71
2023/05/27 04:53:11;;;;;;;7.07;3.10;;;10.20;78.40;;;;;;5065115;28;20539;-70
2023/05/27 04:55:38;;;;;;;9.90;3.53;;;10.30;78.20;;;;;;5082593;28;20123;-71
2023/05/27 04:58:05;;;;;;;10.30;3.67;;;10.40;78.20;;;;;;5064833;28;20482;-71
2023/05/27 05:00:49;;;;;;;12.43;3.80;;;10.90;77.70;;;;;;5070368;28;20028;-71
2023/05/27 05:03:20;;;;;;;10.00;3.92;;;11.50;76.30;;;;;;5071845;28;20025;-71
2023/05/27 05:05:55;;;;;;;11.25;3.85;;;12.00;74.20;;;;;;5085987;28;20020;-71
2023/05/27 05:08:21;;;;;;;8.95;3.53;;;12.50;72.50;;;;;;5074708;28;20716;-71
2023/05/27 05:10:47;;;;;;;9.23;3.38;;;12.90;71.20;;;;;;5070312;28;20032;-71
2023/05/27 05:13:13;;;;;;;9.07;3.50;;;13.30;69.90;;;;;;5069491;28;20017;-70
2023/05/27 05:15:40;;;;;;;10.75;3.78;;;13.60;68.70;;;;;;5073144;28;20024;-69
2023/05/27 05:18:05;;;;;;;9.23;3.60;;;13.80;67.90;;;;;;5068604;28;20020;-69
2023/05/27 05:20:31;;;;;;;12.00;4.00;;;14.10;67.10;;;;;;5085352;28;20038;-69
2023/05/27 05:22:57;;;;;;;15.82;4.25;;;14.10;66.60;;;;;;5063945;28;20056;-69
2023/05/27 05:25:23;;;;;;;10.63;3.70;;;14.30;66.20;;;;;;5076276;28;20059;-70
2023/05/27 05:27:49;;;;;;;8.75;3.33;;;14.20;66.60;;;;;;5076967;28;20060;-70
2023/05/27 05:30:14;;;;;;;12.88;4.28;;;14.50;66.10;;;;;;5071561;28;20074;-71
2023/05/27 05:32:40;;;;;;;17.35;5.05;;;14.90;65.10;;;;;;5079584;28;20105;-70
2023/05/27 05:35:06;;;;;;;11.18;3.80;;;14.50;65.10;;;;;;5070512;28;20058;-69
2023/05/27 05:37:31;;;;;;;14.98;4.82;;;14.70;65.80;;;;;;5069547;28;20068;-69
2023/05/27 05:39:57;;;;;;;14.15;4.20;;;14.80;65.40;;;;;;5072069;28;20036;-69
2023/05/27 05:42:24;;;;;;;9.85;3.85;;;14.80;65.80;;;;;;5072959;28;20028;-69
2023/05/27 05:44:51;;;;;;;9.93;3.92;;;15.30;65.10;;;;;;5070129;28;20075;-70
2023/05/27 05:47:16;;;;;;;12.27;4.72;;;15.30;64.60;;;;;;5069539;28;20035;-69
2023/05/27 05:49:42;;;;;;;10.32;3.70;;;15.70;64.00;;;;;;5069801;28;20028;-68
2023/05/27 05:52:08;;;;;;;12.50;3.47;;;15.80;64.40;;;;;;5069279;28;20021;-68
2023/05/27 05:54:33;;;;;;;11.82;4.13;;;16.20;63.00;;;;;;5069896;28;20029;-68
2023/05/27 05:57:00;;;;;;;10.15;3.58;;;16.00;62.80;;;;;;5075348;28;20027;-68
2023/05/27 05:59:26;;;;;;;11.57;3.80;;;16.10;63.10;;;;;;5068828;28;20037;-68
2023/05/27 06:01:51;;;;;;;12.38;3.83;;;16.00;63.00;;;;;;5068861;28;20020;-68
2023/05/27 06:04:17;;;;;;;14.48;3.80;;;16.40;62.80;;;;;;5068762;28;20064;-70
2023/05/27 06:06:43;;;;;;;9.73;3.40;;;16.60;62.20;;;;;;5069576;28;20083;-69
2023/05/27 06:09:08;;;;;;;17.95;4.68;;;16.80;62.10;;;;;;5068043;28;20020;-69
2023/05/27 06:11:34;;;;;;;14.65;4.70;;;16.60;61.80;;;;;;5069228;28;20052;-69
2023/05/27 06:13:59;;;;;;;15.70;4.53;;;16.20;62.50;;;;;;5069885;28;20028;-70
2023/05/27 06:16:25;;;;;;;18.52;5.18;;;16.10;63.20;;;;;;5070166;28;20033;-70
2023/05/27 06:18:51;;;;;;;15.55;4.45;;;15.80;63.90;;;;;;5068834;28;20059;-68
2023/05/27 06:21:17;;;;;;;11.77;4.38;;;15.80;64.70;;;;;;5073595;28;20095;-70
2023/05/27 06:23:43;;;;;;;11.50;3.67;;;15.60;65.40;;;;;;5071267;28;20128;-67
2023/05/27 06:26:08;;;;;;;12.70;3.72;;;15.70;65.80;;;;;;5079307;28;20086;-70
2023/05/27 06:28:34;;;;;;;13.07;4.28;;;15.50;65.90;;;;;;5071779;28;20020;-71
2023/05/27 06:30:59;;;;;;;10.13;3.60;;;15.20;66.50;;;;;;5071076;28;20071;-69
2023/05/27 06:33:25;;;;;;;10.82;3.70;;;15.10;66.90;;;;;;5076384;28;20032;-70
2023/05/27 06:35:50;;;;;;;16.20;4.40;;;14.90;67.30;;;;;;5085019;28;20021;-70
2023/05/27 06:38:16;;;;;;;13.70;4.55;;;14.70;67.50;;;;;;5072539;28;20391;-70
2023/05/27 06:40:41;;;;;;;11.35;3.92;;;14.50;68.00;;;;;;5072895;28;20017;-73
2023/05/27 06:43:07;;;;;;;10.07;3.60;;;14.50;68.60;;;;;;5076646;28;20432;-70
2023/05/27 06:45:33;;;;;;;10.85;3.67;;;14.70;68.70;;;;;;5072886;28;20538;-69
2023/05/27 06:47:58;;;;;;;12.95;4.15;;;14.80;68.20;;;;;;5074520;28;20387;-69
2023/05/27 06:50:24;;;;;;;10.45;4.57;;;14.80;67.80;;;;;;5071010;28;20051;-69
2023/05/27 06:52:49;;;;;;;11.68;3.95;;;14.80;67.90;;;;;;5089378;28;20217;-69
2023/05/27 06:55:15;;;;;;;12.43;4.05;;;14.80;67.80;;;;;;5072769;28;20059;-70
2023/05/27 06:57:40;;;;;;;11.55;4.05;;;14.70;67.70;;;;;;5072103;28;20169;-69
2023/05/27 07:00:08;;;;;;;11.32;3.92;;;14.80;68.20;;;;;;5072956;28;20029;-69
2023/05/27 07:02:33;;;;;;;12.20;3.70;;;15.10;67.90;;;;;;5080991;28;20020;-68
2023/05/27 07:04:59;;;;;;;12.50;4.57;;;15.20;67.40;;;;;;5072568;28;20134;-69
2023/05/27 07:07:25;;;;;;;8.73;3.53;;;15.20;66.90;;;;;;5067873;28;20028;-69
2023/05/27 07:09:50;;;;;;;10.52;3.40;;;15.40;66.80;;;;;;5068436;28;20032;-70
2023/05/27 07:12:16;;;;;;;15.15;4.22;;;15.70;66.40;;;;;;5068862;28;20033;-70
2023/05/27 07:14:41;;;;;;;12.23;3.90;;;15.70;65.40;;;;;;5071998;28;20063;-70
2023/05/27 07:17:07;;;;;;;8.73;3.35;;;15.60;65.10;;;;;;5069956;28;20090;-69
2023/05/27 07:19:32;;;;;;;8.35;3.15;;;15.60;65.40;;;;;;5062541;28;20704;-69
2023/05/27 07:21:58;;;;;;;10.80;3.75;;;15.90;65.50;;;;;;5068607;28;20449;-69
2023/05/27 07:24:24;;;;;;;8.88;3.75;;;16.10;65.00;;;;;;5072236;28;20461;-69
2023/05/27 07:26:49;;;;;;;12.75;4.55;;;16.10;64.10;;;;;;5065811;28;20036;-69
2023/05/27 07:29:15;;;;;;;10.27;3.80;;;16.00;63.30;;;;;;5071845;28;20433;-69
2023/05/27 07:31:40;;;;;;;15.68;4.30;;;15.80;63.90;;;;;;5072191;28;20471;-69
2023/05/27 07:34:06;;;;;;;15.52;4.40;;;15.80;64.30;;;;;;5070244;28;20032;-70
2023/05/27 07:36:32;;;;;;;9.63;3.80;;;15.70;64.00;;;;;;5071062;28;20035;-70
2023/05/27 07:38:57;;;;;;;13.68;4.30;;;15.70;64.40;;;;;;5070774;28;20023;-70
2023/05/27 07:41:24;;;;;;;10.25;4.15;;;16.00;64.30;;;;;;5071196;28;20025;-70
2023/05/27 07:43:49;;;;;;;12.65;3.70;;;16.10;64.00;;;;;;5070087;28;20028;-70
2023/05/27 07:46:15;;;;;;;11.50;4.53;;;16.20;63.40;;;;;;5068796;28;20029;-70
2023/05/27 07:48:40;;;;;;;15.10;5.05;;;16.20;62.80;;;;;;5072265;28;20097;-70
2023/05/27 07:51:06;;;;;;;11.18;4.25;;;16.20;63.10;;;;;;5073366;28;20032;-70
2023/05/27 07:53:32;;;;;;;12.23;4.22;;;16.20;63.40;;;;;;5076922;28;20383;-70
2023/05/27 07:55:57;;;;;;;14.15;4.43;;;16.30;63.40;;;;;;5072014;28;20395;-70
2023/05/27 07:58:23;;;;;;;16.33;4.95;;;16.40;63.10;;;;;;5073295;28;20021;-70
2023/05/27 08:00:48;;;;;;;11.50;4.25;;;16.50;62.20;;;;;;5069860;28;20028;-69
2023/05/27 08:03:14;;;;;;;11.23;4.25;;;16.40;62.30;;;;;;5074274;28;20479;-70
2023/05/27 08:05:39;;;;;;;10.75;4.50;;;16.50;62.80;;;;;;5071327;28;20028;-69
2023/05/27 08:08:05;;;;;;;13.15;4.53;;;16.60;62.20;;;;;;5070431;28;20020;-69
2023/05/27 08:10:31;;;;;;;12.45;4.03;;;16.60;61.70;;;;;;5070850;28;20031;-70
2023/05/27 08:12:56;;;;;;;14.80;4.60;;;16.50;62.20;;;;;;5082227;28;20039;-69
2023/05/27 08:15:22;;;;;;;12.68;4.85;;;16.70;62.30;;;;;;5070520;28;20020;-69
2023/05/27 08:17:47;;;;;;;12.25;4.10;;;16.60;62.00;;;;;;5071431;28;20032;-69
2023/05/27 08:20:13;;;;;;;11.40;4.30;;;16.80;62.80;;;;;;5072705;28;20036;-69
2023/05/27 08:22:38;;;;;;;13.90;5.13;;;16.90;62.50;;;;;;5072096;28;20052;-69
2023/05/27 08:25:05;;;;;;;15.55;5.13;;;17.00;61.60;;;;;;5071092;28;20033;-70
2023/05/27 08:27:57;;;;;;;11.27;4.45;;;17.10;61.50;;;;;;5070160;28;20016;-69
2023/05/27 08:30:22;;;;;;;13.05;4.95;;;17.30;61.40;;;;;;5067694;28;20070;-69
2023/05/27 08:32:48;;;;;;;14.18;4.72;;;17.40;61.30;;;;;;5071761;28;20103;-69
2023/05/27 08:35:14;;;;;;;12.45;4.40;;;17.40;61.00;;;;;;5083369;28;20024;-69
2023/05/27 08:37:40;;;;;;;11.45;4.85;;;17.40;60.40;;;;;;5067574;28;20028;-69
2023/05/27 08:40:17;;;;;;;15.80;5.10;;;17.40;60.40;;;;;;5068318;28;20043;-69
2023/05/27 08:42:43;;;;;;;10.40;4.22;;;17.40;60.40;;;;;;5067511;28;20558;-69
2023/05/27 08:45:10;;;;;;;14.88;5.30;;;17.50;60.70;;;;;;5069395;28;20025;-69
2023/05/27 08:47:35;;;;;;;12.23;4.45;;;17.60;60.60;;;;;;5072727;28;20100;-68
2023/05/27 08:50:01;;;;;;;14.70;4.90;;;17.80;60.60;;;;;;5070266;28;20534;-69
2023/05/27 08:52:28;;;;;;;13.32;5.20;;;17.90;59.80;;;;;;5070760;28;20025;-69
2023/05/27 08:54:56;;;;;;;10.07;4.53;;;18.10;59.50;;;;;;5070608;28;20028;-69
2023/05/27 08:57:25;;;;;;;16.10;5.03;;;18.10;59.60;;;;;;5070068;28;20480;-69
2023/05/27 08:59:51;;;;;;;9.95;4.05;;;18.20;58.90;;;;;;5066249;28;20029;-68
2023/05/27 09:02:18;;;;;;;11.55;4.53;;;18.30;58.80;;;;;;5065273;28;20054;-69
2023/05/27 09:04:46;;;;;;;12.75;4.90;;;18.30;58.20;;;;;;5065349;28;20021;-69
2023/05/27 09:07:12;;;;;;;12.43;4.90;;;18.40;58.20;;;;;;5068416;28;20089;-69
2023/05/27 09:09:38;;;;;;;13.18;4.65;;;18.50;58.50;;;;;;5065838;28;20502;-69
2023/05/27 09:12:05;;;;;;;14.15;5.30;;;18.40;58.00;;;;;;5066032;28;20031;-69
2023/05/27 09:14:31;;;;;;;10.57;4.32;;;18.40;58.20;;;;;;5071002;28;20069;-70
2023/05/27 09:17:04;;;;;;;12.32;4.40;;;18.60;58.20;;;;;;5065026;28;20064;-69
2023/05/27 09:19:30;;;;;;;15.25;5.10;;;18.80;57.90;;;;;;5065808;28;20141;-69
2023/05/27 09:21:55;;;;;;;12.70;5.07;;;18.80;57.80;;;;;;5072112;28;20033;-69
2023/05/27 09:24:24;;;;;;;12.77;4.38;;;18.90;56.40;;;;;;5066336;28;21600;-68
2023/05/27 09:26:51;;;;;;;13.45;5.15;;;19.00;56.70;;;;;;5068285;28;20111;-68
2023/05/27 09:29:19;;;;;;;13.07;5.03;;;19.00;56.60;;;;;;5068215;28;20021;-68
2023/05/27 09:31:45;;;;;;;12.63;4.32;;;18.90;55.80;;;;;;5067628;28;20025;-70
2023/05/27 09:34:16;;;;;;;13.57;4.53;;;18.90;56.10;;;;;;5067667;28;20017;-69
2023/05/27 09:36:50;;;;;;;12.18;5.13;;;19.00;56.50;;;;;;5068087;28;20089;-68
2023/05/27 09:39:18;;;;;;;11.40;4.63;;;18.90;56.70;;;;;;5069360;28;20063;-68
2023/05/27 09:41:49;;;;;;;16.23;5.50;;;18.90;57.00;;;;;;5061452;28;20059;-68
2023/05/27 09:44:15;;;;;;;12.68;4.80;;;18.90;56.80;;;;;;5062742;28;20043;-68
2023/05/27 09:46:43;;;;;;;12.90;5.05;;;18.90;56.60;;;;;;5067128;28;20534;-68
2023/05/27 09:49:10;;;;;;;11.07;4.55;;;19.00;55.90;;;;;;5067644;28;20095;-68
2023/05/27 09:51:39;;;;;;;13.55;4.72;;;19.20;56.40;;;;;;5065239;28;20024;-68
2023/05/27 09:54:06;;;;;;;12.00;4.55;;;19.40;55.40;;;;;;5067959;28;20633;-68
2023/05/27 09:56:31;;;;;;;13.85;5.05;;;19.50;55.00;;;;;;5071333;28;20013;-67
2023/05/27 09:58:58;;;;;;;12.45;4.65;;;19.70;55.20;;;;;;5071034;28;20555;-67
2023/05/27 10:01:29;;;;;;;13.50;4.78;;;19.70;53.90;;;;;;5072239;28;20051;-67
2023/05/27 10:03:58;;;;;;;15.73;5.15;;;19.60;53.80;;;;;;5072864;28;20119;-67
2023/05/27 10:06:25;;;;;;;11.75;4.50;;;19.70;53.80;;;;;;5069744;28;20383;-67
2023/05/27 10:08:58;;;;;;;15.55;4.68;;;19.70;53.50;;;;;;5068893;28;20055;-67
2023/05/27 10:11:26;;;;;;;9.77;4.15;;;19.60;53.30;;;;;;5068820;28;20435;-68
2023/05/27 10:13:51;;;;;;;12.88;4.10;;;19.80;53.50;;;;;;5072795;28;20020;-67
2023/05/27 10:16:25;;;;;;;12.63;4.35;;;20.00;53.50;;;;;;5073056;28;20072;-68
2023/05/27 10:18:56;;;;;;;11.23;4.18;;;20.20;53.00;;;;;;5069178;28;20032;-69
2023/05/27 10:21:26;;;;;;;15.25;4.82;;;20.10;52.70;;;;;;5070665;28;20115;-69
2023/05/27 10:24:01;;;;;;;14.50;4.38;;;20.00;52.50;;;;;;5069488;28;20021;-69
2023/05/27 10:26:38;;;;;;;12.57;5.00;;;20.20;52.70;;;;;;5068212;28;20032;-69
2023/05/27 10:29:08;;;;;;;10.77;4.43;;;20.00;52.60;;;;;;5070956;28;20104;-69
2023/05/27 10:31:36;;;;;;;14.90;4.45;;;20.10;52.70;;;;;;5069918;28;20024;-69
2023/05/27 10:34:04;;;;;;;13.88;4.65;;;20.10;51.50;;;;;;5071205;28;20082;-70
2023/05/27 10:36:31;;;;;;;10.82;3.97;;;20.10;52.00;;;;;;5070443;28;20048;-69
2023/05/27 10:39:03;;;;;;;10.23;3.75;;;20.30;51.60;;;;;;5068732;28;20036;-67
2023/05/27 10:41:37;;;;;;;9.88;3.72;;;20.70;51.60;;;;;;5067973;28;20033;-68
2023/05/27 10:44:03;;;;;;;9.40;3.80;;;20.70;49.70;;;;;;5069615;28;20494;-68
2023/05/27 10:46:39;;;;;;;12.75;4.10;;;20.60;47.70;;;;;;5070096;28;20032;-69
2023/05/27 10:49:15;;;;;;;10.65;3.85;;;20.70;49.00;;;;;;5073214;28;20566;-69
2023/05/27 10:51:43;;;;;;;9.20;3.80;;;21.00;49.50;;;;;;5073327;28;20020;-70
2023/05/27 10:54:09;;;;;;;12.90;4.15;;;21.00;49.70;;;;;;5071527;28;20037;-68
2023/05/27 10:56:34;;;;;;;9.98;3.83;;;21.20;49.90;;;;;;5069112;28;20022;-69
2023/05/27 10:59:04;;;;;;;10.32;4.30;;;21.20;49.50;;;;;;5071025;28;20039;-69
2023/05/27 11:01:33;;;;;;;13.77;4.35;;;21.20;49.70;;;;;;5068509;28;20028;-69
2023/05/27 11:03:59;;;;;;;11.93;4.60;;;21.00;49.60;;;;;;5069995;28;20037;-70
2023/05/27 11:06:24;;;;;;;11.85;4.18;;;20.90;49.50;;;;;;5068993;28;20031;-70
2023/05/27 11:08:50;;;;;;;11.10;4.22;;;21.00;49.90;;;;;;5071159;28;20024;-69
2023/05/27 11:11:16;;;;;;;10.55;4.68;;;21.10;49.80;;;;;;5068170;28;20115;-70
2023/05/27 11:13:46;;;;;;;12.25;4.25;;;21.20;49.90;;;;;;5071363;28;20024;-69
2023/05/27 11:16:12;;;;;;;9.30;3.63;;;21.10;49.90;;;;;;5069683;28;20021;-69
2023/05/27 11:18:44;;;;;;;11.38;4.43;;;21.30;50.00;;;;;;5064979;28;20501;-69
2023/05/27 11:21:10;;;;;;;;;;;21.30;49.00;;;;;;5069686;28;20013;-69
2023/05/27 11:23:48;;;;;;;11.57;4.40;;;21.40;49.40;;;;;;5067538;28;19920;-69
2023/05/27 11:26:17;;;;;;;12.10;4.57;;;21.40;49.30;;;;;;5071813;28;20031;-69
2023/05/27 11:28:46;;;;;;;11.95;4.55;;;21.40;48.80;;;;;;5069608;28;20113;-69
2023/05/27 11:31:12;;;;;;;9.18;3.85;;;21.30;48.90;;;;;;5072453;28;20032;-69
2023/05/27 11:33:42;;;;;;;12.73;4.50;;;21.60;49.20;;;;;;5067209;28;20471;-69
2023/05/27 11:36:11;;;;;;;11.43;4.60;;;21.80;48.70;;;;;;5070701;28;20028;-69
2023/05/27 11:38:55;;;;;;;11.55;4.10;;;21.70;48.10;;;;;;5070671;28;20017;-69
2023/05/27 11:41:23;;;;;;;10.07;3.92;;;22.00;48.20;;;;;;5070524;28;20063;-68
2023/05/27 11:43:49;;;;;;;11.20;4.25;;;22.30;47.30;;;;;;5063981;28;20429;-68
2023/05/27 11:46:15;;;;;;;10.65;3.95;;;22.20;45.90;;;;;;5063779;28;20028;-69
2023/05/27 11:48:41;;;;;;;9.50;3.45;;;22.10;46.10;;;;;;5067759;28;20494;-69
2023/05/27 11:51:07;;;;;;;8.40;3.63;;;22.30;46.50;;;;;;5067218;28;20025;-69
2023/05/27 11:53:34;;;;;;;9.48;3.80;;;22.20;46.40;;;;;;5066515;28;20036;-69
2023/05/27 11:56:00;;;;;;;9.77;4.15;;;22.30;46.50;;;;;;5063433;28;20120;-69
2023/05/27 11:58:25;;;;;;;8.25;3.35;;;22.40;46.80;;;;;;5067188;28;20016;-69
2023/05/27 12:00:51;;;;;;;8.40;3.55;;;22.60;46.20;;;;;;5067154;28;20029;-69
2023/05/27 12:03:17;;;;;;;8.65;3.17;;;22.80;45.90;;;;;;5067266;28;20054;-69
2023/05/27 12:05:42;;;;;;;10.00;4.07;;;22.90;44.80;;;;;;5068662;28;20024;-69
2023/05/27 12:08:08;;;;;;;10.15;4.13;;;22.80;44.00;;;;;;5068504;28;20021;-69
2023/05/27 12:10:33;;;;;;;11.13;3.90;;;22.90;43.90;;;;;;5070813;28;20025;-69
2023/05/27 12:13:03;;;;;;;9.50;3.70;;;22.80;43.60;;;;;;5066091;28;20036;-69
2023/05/27 12:15:29;;;;;;;8.95;3.55;;;22.90;43.80;;;;;;5067232;28;20093;-69
2023/05/27 12:17:55;;;;;;;9.90;3.90;;;23.00;43.60;;;;;;5065466;28;20546;-69
2023/05/27 12:20:21;;;;;;;8.55;4.00;;;22.80;43.10;;;;;;5068290;28;20044;-69
2023/05/27 12:22:46;;;;;;;10.27;4.40;;;22.90;43.60;;;;;;5064556;28;20138;-69
2023/05/27 12:25:12;;;;;;;10.05;3.90;;;23.30;43.10;;;;;;5068593;28;20064;-69
2023/05/27 12:27:37;;;;;;;8.70;4.10;;;23.20;42.60;;;;;;5067831;28;20028;-70
2023/05/27 12:30:03;;;;;;;9.43;3.65;;;23.20;42.10;;;;;;5069229;28;20029;-69
2023/05/27 12:32:29;;;;;;;9.02;4.00;;;23.20;42.60;;;;;;5066371;28;20124;-70
2023/05/27 12:34:55;;;;;;;9.18;3.88;;;23.40;41.60;;;;;;5063820;28;20028;-69
2023/05/27 12:37:20;;;;;;;7.85;3.80;;;23.30;41.40;;;;;;5067587;28;20547;-69
2023/05/27 12:39:46;;;;;;;10.00;4.03;;;23.50;42.00;;;;;;5067235;28;20028;-69
2023/05/27 12:42:11;;;;;;;7.60;3.50;;;23.50;41.70;;;;;;5067743;28;20028;-69